Time;durP1;ratioP1;P1;durP2;ratioP2;P2;SDS_P1;SDS_P2;PMS_P1;PMS_P2;Temp;Humidity;BMP_temperature;BMP_pressure;BME280_temperature;BME280_humidity;BME280_pressure;Samples;Min_cycle;Max_cycle;Signal;HPM_P1;HPM_P2
2021/09/24 00:00:23;;;;;;;;;;;13.00;99.90;;;;;;5095158;28;20127;-65
2021/09/24 00:02:49;;;;;;;20.50;3.03;;;12.80;99.90;;;;;;5092101;28;20299;-65
2021/09/24 00:05:14;;;;;;;22.45;2.95;;;12.90;99.90;;;;;;5098380;28;20047;-66
2021/09/24 00:07:40;;;;;;;14.98;2.80;;;12.90;99.90;;;;;;5091341;28;20069;-66
2021/09/24 00:10:07;;;;;;;19.35;3.53;;;13.00;99.90;;;;;;5098229;28;20047;-66
2021/09/24 00:12:34;;;;;;;23.27;3.35;;;13.00;99.90;;;;;;5091028;28;20048;-66
2021/09/24 00:15:00;;;;;;;26.60;3.22;;;13.00;99.90;;;;;;5093497;28;20481;-66
2021/09/24 00:17:26;;;;;;;17.33;3.33;;;13.10;99.90;;;;;;5084776;28;20037;-65
2021/09/24 00:19:52;;;;;;;19.00;3.33;;;13.30;99.90;;;;;;5100431;28;20121;-65
2021/09/24 00:22:18;;;;;;;16.50;3.78;;;13.20;99.90;;;;;;5094588;28;20032;-65
2021/09/24 00:24:43;;;;;;;13.43;3.55;;;13.30;99.90;;;;;;5084968;28;20052;-66
2021/09/24 00:27:09;;;;;;;23.38;3.85;;;13.30;99.90;;;;;;5094590;28;20056;-66
2021/09/24 00:29:35;;;;;;;18.73;3.47;;;13.30;99.90;;;;;;5099483;28;20040;-66
2021/09/24 00:32:00;;;;;;;17.52;2.80;;;13.30;99.90;;;;;;5098959;28;20057;-66
2021/09/24 00:34:26;;;;;;;19.90;3.10;;;13.30;99.90;;;;;;5101267;28;20048;-66
2021/09/24 00:36:52;;;;;;;17.58;4.00;;;13.30;99.90;;;;;;5099534;28;20385;-66
2021/09/24 00:39:17;;;;;;;14.68;2.78;;;13.40;99.90;;;;;;5100171;28;20471;-66
2021/09/24 00:41:43;;;;;;;21.77;3.50;;;13.50;99.90;;;;;;5099644;28;20047;-66
2021/09/24 00:44:09;;;;;;;14.73;2.85;;;13.50;99.90;;;;;;5102624;28;20419;-66
2021/09/24 00:46:35;;;;;;;20.88;2.95;;;13.60;99.90;;;;;;5094228;28;20044;-66
2021/09/24 00:49:00;;;;;;;15.18;2.70;;;13.50;99.90;;;;;;5099266;28;20059;-66
2021/09/24 00:51:26;;;;;;;19.80;3.42;;;13.50;99.90;;;;;;5097607;28;20074;-66
2021/09/24 00:53:52;;;;;;;27.63;4.07;;;13.50;99.90;;;;;;5091694;28;20062;-66
2021/09/24 00:56:19;;;;;;;26.42;3.95;;;13.50;99.90;;;;;;5097163;28;20062;-66
2021/09/24 00:58:45;;;;;;;19.30;4.15;;;13.50;99.90;;;;;;5102887;28;20047;-66
2021/09/24 01:01:11;;;;;;;21.00;3.30;;;13.50;99.90;;;;;;5095680;28;20036;-66
2021/09/24 01:03:36;;;;;;;23.02;3.75;;;13.50;99.90;;;;;;5102722;28;20051;-66
2021/09/24 01:06:02;;;;;;;19.30;3.33;;;13.50;99.90;;;;;;5094955;28;20044;-66
2021/09/24 01:08:30;;;;;;;25.23;4.47;;;13.60;99.90;;;;;;5102803;28;20044;-67
2021/09/24 01:10:56;;;;;;;23.73;3.58;;;13.50;99.90;;;;;;5098507;28;20073;-67
2021/09/24 01:13:21;;;;;;;32.15;3.65;;;13.60;99.90;;;;;;5077376;28;20040;-66
2021/09/24 01:15:47;;;;;;;23.50;3.50;;;13.60;99.90;;;;;;5091983;28;20059;-66
2021/09/24 01:18:13;;;;;;;14.85;2.80;;;13.50;99.90;;;;;;5102267;28;20040;-66
2021/09/24 01:20:39;;;;;;;23.30;3.38;;;13.60;99.90;;;;;;5094269;28;20401;-66
2021/09/24 01:23:05;;;;;;;40.88;5.93;;;13.60;99.90;;;;;;5095931;28;20120;-66
2021/09/24 01:25:30;;;;;;;24.80;4.30;;;13.60;99.90;;;;;;5102118;28;20450;-66
2021/09/24 01:27:56;;;;;;;19.02;3.45;;;13.60;99.90;;;;;;5100980;28;20125;-66
2021/09/24 01:30:22;;;;;;;19.08;3.05;;;13.60;99.90;;;;;;5107510;28;20121;-66
2021/09/24 01:32:48;;;;;;;16.73;3.00;;;13.60;99.90;;;;;;5101950;28;20092;-66
2021/09/24 01:35:15;;;;;;;17.55;4.35;;;13.70;99.90;;;;;;5088434;28;20052;-66
2021/09/24 01:37:42;;;;;;;24.48;3.95;;;13.80;99.90;;;;;;5099534;28;20067;-66
2021/09/24 01:40:13;;;;;;;19.75;3.10;;;13.70;99.90;;;;;;5103186;28;20052;-66
2021/09/24 01:42:39;;;;;;;29.25;4.07;;;13.80;99.90;;;;;;5102071;28;20051;-66
2021/09/24 01:45:06;;;;;;;20.67;3.65;;;13.80;99.90;;;;;;5099789;28;20048;-66
2021/09/24 01:47:32;;;;;;;28.25;3.63;;;13.80;99.90;;;;;;5092982;28;20087;-66
2021/09/24 01:49:58;;;;;;;17.08;3.50;;;13.80;99.90;;;;;;5104246;28;20044;-66
2021/09/24 01:52:24;;;;;;;18.85;2.95;;;13.80;99.90;;;;;;5105014;28;20043;-66
2021/09/24 01:54:49;;;;;;;20.38;3.10;;;13.90;99.90;;;;;;5096638;28;20047;-66
2021/09/24 01:57:15;;;;;;;19.48;3.20;;;13.80;99.90;;;;;;5090972;28;20053;-66
2021/09/24 01:59:41;;;;;;;21.60;3.20;;;13.80;99.90;;;;;;5095541;28;20105;-66
2021/09/24 02:02:06;;;;;;;18.92;2.63;;;13.90;99.90;;;;;;5103263;28;20625;-66
2021/09/24 02:04:32;;;;;;;15.40;3.13;;;13.80;99.90;;;;;;5096454;28;20040;-66
2021/09/24 02:06:58;;;;;;;17.25;3.63;;;13.80;99.90;;;;;;5103468;28;20044;-66
2021/09/24 02:09:23;;;;;;;26.30;3.50;;;13.80;99.90;;;;;;5095478;28;20042;-66
2021/09/24 02:11:49;;;;;;;19.40;3.30;;;13.90;99.90;;;;;;5091593;28;20113;-66
2021/09/24 02:14:15;;;;;;;22.23;3.05;;;13.90;99.90;;;;;;5099417;28;20061;-66
2021/09/24 02:16:40;;;;;;;27.58;3.88;;;13.90;99.90;;;;;;5102565;28;20044;-66
2021/09/24 02:19:06;;;;;;;19.85;3.83;;;14.00;99.90;;;;;;5092218;28;20052;-66
2021/09/24 02:21:32;;;;;;;29.17;3.60;;;14.00;99.90;;;;;;5103140;28;20114;-66
2021/09/24 02:23:58;;;;;;;16.13;3.08;;;14.00;99.90;;;;;;5102569;28;20044;-66
2021/09/24 02:26:24;;;;;;;31.80;3.90;;;14.00;99.90;;;;;;5096640;28;20055;-66
2021/09/24 02:28:50;;;;;;;18.85;3.70;;;14.10;99.90;;;;;;5088078;28;20518;-66
2021/09/24 02:31:15;;;;;;;15.88;3.08;;;14.10;99.90;;;;;;5100039;28;20040;-66
2021/09/24 02:33:41;;;;;;;20.00;3.63;;;14.10;99.90;;;;;;5101071;28;20040;-66
2021/09/24 02:36:09;;;;;;;16.73;3.15;;;14.20;99.90;;;;;;5101499;28;20040;-66
2021/09/24 02:38:35;;;;;;;;;;;14.20;99.90;;;;;;5081976;28;20051;-66
2021/09/24 02:41:01;;;;;;;19.85;3.00;;;14.30;99.90;;;;;;5103353;28;19920;-66
2021/09/24 02:43:27;;;;;;;22.77;2.72;;;14.30;99.90;;;;;;5101992;28;20071;-66
2021/09/24 02:45:53;;;;;;;21.10;3.65;;;14.30;99.90;;;;;;5098426;28;20408;-66
2021/09/24 02:48:19;;;;;;;24.42;3.85;;;14.30;99.90;;;;;;5090553;28;20071;-66
2021/09/24 02:50:45;;;;;;;26.02;4.68;;;14.30;99.90;;;;;;5103693;28;20122;-65
2021/09/24 02:53:11;;;;;;;17.92;3.55;;;14.30;99.90;;;;;;5095851;28;20040;-66
2021/09/24 02:55:36;;;;;;;21.80;3.78;;;14.20;99.90;;;;;;5102086;28;20028;-66
2021/09/24 02:58:02;;;;;;;20.10;3.75;;;14.30;99.90;;;;;;5095462;28;20055;-66
2021/09/24 03:00:28;;;;;;;18.55;3.42;;;14.20;99.90;;;;;;5090246;28;20052;-66
2021/09/24 03:02:54;;;;;;;29.30;3.88;;;14.10;99.90;;;;;;5095609;28;20221;-66
2021/09/24 03:05:20;;;;;;;19.95;3.63;;;14.10;99.90;;;;;;5097154;28;20548;-66
2021/09/24 03:07:46;;;;;;;19.27;3.50;;;14.10;99.90;;;;;;5101136;28;20032;-66
2021/09/24 03:10:12;;;;;;;30.20;4.72;;;14.00;99.90;;;;;;5094773;28;20515;-66
2021/09/24 03:12:38;;;;;;;19.13;3.55;;;14.00;99.90;;;;;;5091391;28;20063;-66
2021/09/24 03:15:06;;;;;;;20.35;4.18;;;14.00;99.90;;;;;;5093492;28;20123;-66
2021/09/24 03:17:32;;;;;;;22.27;3.78;;;14.00;99.90;;;;;;5089366;28;20098;-66
2021/09/24 03:19:57;;;;;;;29.42;4.85;;;14.00;99.90;;;;;;5093393;28;20044;-66
2021/09/24 03:22:23;;;;;;;24.23;3.83;;;13.90;99.90;;;;;;5088370;28;20036;-66
2021/09/24 03:24:49;;;;;;;25.38;4.13;;;13.90;99.90;;;;;;5098006;28;20046;-66
2021/09/24 03:27:14;;;;;;;17.35;2.97;;;13.90;99.90;;;;;;5087926;28;20036;-66
2021/09/24 03:29:40;;;;;;;27.45;4.47;;;13.90;99.90;;;;;;5097404;28;20043;-66
2021/09/24 03:32:07;;;;;;;36.90;4.18;;;13.90;99.90;;;;;;5098812;28;20079;-66
2021/09/24 03:34:33;;;;;;;21.23;3.35;;;13.90;99.90;;;;;;5097987;28;20060;-66
2021/09/24 03:36:58;;;;;;;26.85;3.70;;;13.90;99.90;;;;;;5100799;28;20040;-66
2021/09/24 03:39:24;;;;;;;23.83;3.50;;;14.00;99.90;;;;;;5094037;28;20253;-66
2021/09/24 03:41:52;;;;;;;18.83;3.08;;;14.00;99.90;;;;;;5101420;28;20058;-66
2021/09/24 03:44:17;;;;;;;;;;;14.00;99.90;;;;;;5094194;28;20055;-66
2021/09/24 03:46:43;;;;;;;14.80;2.83;;;14.00;99.90;;;;;;5088879;28;19920;-66
2021/09/24 03:49:09;;;;;;;20.52;3.80;;;13.90;99.90;;;;;;5092750;28;20080;-66
2021/09/24 03:51:34;;;;;;;30.25;5.80;;;14.00;99.90;;;;;;5098615;28;20048;-66
2021/09/24 03:54:00;;;;;;;19.48;3.20;;;14.00;99.90;;;;;;5101342;28;20042;-66
2021/09/24 03:56:26;;;;;;;19.27;3.30;;;14.00;99.90;;;;;;5098378;28;20055;-66
2021/09/24 03:58:51;;;;;;;13.20;4.22;;;14.00;99.90;;;;;;5091492;28;20059;-66
2021/09/24 04:01:17;;;;;;;20.40;4.13;;;14.10;99.90;;;;;;5098035;28;20044;-66
2021/09/24 04:03:43;;;;;;;24.90;4.70;;;14.00;99.90;;;;;;5100575;28;20040;-66
2021/09/24 04:06:11;;;;;;;13.77;3.08;;;14.00;99.90;;;;;;5107504;28;20032;-66
2021/09/24 04:08:37;;;;;;;14.50;3.10;;;14.00;99.90;;;;;;5095425;28;20066;-66
2021/09/24 04:11:04;;;;;;;22.35;3.88;;;14.00;99.90;;;;;;5101010;28;20040;-66
2021/09/24 04:13:30;;;;;;;15.23;3.77;;;14.00;99.90;;;;;;5096231;28;20067;-66
2021/09/24 04:15:56;;;;;;;19.20;4.00;;;14.10;99.90;;;;;;5100626;28;20404;-66
2021/09/24 04:18:22;;;;;;;24.95;3.88;;;14.00;99.90;;;;;;5098064;28;20395;-66
2021/09/24 04:20:48;;;;;;;16.67;4.10;;;14.10;99.90;;;;;;5099101;28;20055;-66
2021/09/24 04:23:14;;;;;;;15.90;3.92;;;14.10;99.90;;;;;;5088573;28;20037;-66
2021/09/24 04:25:40;;;;;;;12.63;3.38;;;14.20;99.90;;;;;;5096878;28;20046;-66
2021/09/24 04:28:07;;;;;;;16.15;4.18;;;14.20;99.90;;;;;;5100548;28;20096;-66
2021/09/24 04:30:32;;;;;;;16.73;2.58;;;14.20;99.90;;;;;;5094571;28;20083;-66
2021/09/24 04:32:58;;;;;;;9.68;2.97;;;14.20;99.90;;;;;;5101223;28;20125;-66
2021/09/24 04:35:24;;;;;;;17.45;3.80;;;14.20;99.90;;;;;;5094787;28;20045;-66
2021/09/24 04:37:53;;;;;;;21.17;4.38;;;14.20;99.90;;;;;;5101326;28;20045;-66
2021/09/24 04:40:19;;;;;;;16.15;3.20;;;14.20;99.90;;;;;;5094104;28;20097;-66
2021/09/24 04:42:45;;;;;;;15.02;2.95;;;14.20;99.90;;;;;;5100747;28;20040;-66
2021/09/24 04:45:11;;;;;;;17.15;3.80;;;14.20;99.90;;;;;;5093060;28;20122;-66
2021/09/24 04:47:37;;;;;;;20.77;4.05;;;14.20;99.90;;;;;;5095221;28;20044;-66
2021/09/24 04:50:07;;;;;;;15.27;3.92;;;14.30;99.90;;;;;;5101216;28;20062;-66
2021/09/24 04:52:33;;;;;;;13.40;3.10;;;14.30;99.90;;;;;;5103357;28;20071;-66
2021/09/24 04:54:59;;;;;;;18.40;4.55;;;14.30;99.90;;;;;;5101591;28;20040;-66
2021/09/24 04:57:25;;;;;;;13.98;2.80;;;14.30;99.90;;;;;;5105042;28;20047;-66
2021/09/24 04:59:50;;;;;;;13.43;3.10;;;14.30;99.90;;;;;;5102489;28;20032;-66
2021/09/24 05:02:16;;;;;;;11.75;3.50;;;14.40;99.90;;;;;;5074210;28;20039;-66
2021/09/24 05:04:43;;;;;;;15.77;2.88;;;14.40;99.90;;;;;;5095456;28;20044;-66
2021/09/24 05:07:08;;;;;;;15.90;3.33;;;14.40;99.90;;;;;;5088695;28;20094;-66
2021/09/24 05:09:35;;;;;;;15.73;3.53;;;14.40;99.90;;;;;;5089168;28;20302;-66
2021/09/24 05:12:01;;;;;;;20.70;3.63;;;14.40;99.90;;;;;;5088993;28;20463;-66
2021/09/24 05:14:26;;;;;;;20.30;3.50;;;14.40;99.90;;;;;;5093461;28;20039;-66
2021/09/24 05:16:52;;;;;;;15.23;3.03;;;14.40;99.90;;;;;;5088663;28;20056;-66
2021/09/24 05:19:18;;;;;;;19.25;2.85;;;14.40;99.90;;;;;;5090650;28;20070;-66
2021/09/24 05:21:43;;;;;;;17.90;4.13;;;14.40;99.90;;;;;;5099298;28;20051;-66
2021/09/24 05:24:09;;;;;;;11.95;3.30;;;14.40;99.90;;;;;;5099066;28;20163;-66
2021/09/24 05:26:35;;;;;;;17.58;2.95;;;14.40;99.90;;;;;;5096909;28;20045;-66
2021/09/24 05:29:00;;;;;;;16.42;3.65;;;14.40;99.90;;;;;;5091252;28;20040;-66
2021/09/24 05:31:26;;;;;;;14.90;3.42;;;14.40;99.90;;;;;;5080898;28;20068;-66
2021/09/24 05:33:52;;;;;;;15.60;3.20;;;14.40;99.90;;;;;;5093424;28;20040;-66
2021/09/24 05:36:18;;;;;;;18.90;6.43;;;14.40;99.90;;;;;;5088919;28;20044;-67
2021/09/24 05:38:43;;;;;;;17.67;3.40;;;14.40;99.90;;;;;;5090369;28;20480;-67
2021/09/24 05:41:09;;;;;;;17.33;3.33;;;14.40;99.90;;;;;;5089115;28;20033;-67
2021/09/24 05:43:36;;;;;;;29.20;7.10;;;14.40;99.90;;;;;;5087389;28;20048;-67
2021/09/24 05:46:02;;;;;;;16.13;3.33;;;14.50;99.90;;;;;;5099983;28;20051;-66
2021/09/24 05:48:28;;;;;;;14.20;4.05;;;14.50;99.90;;;;;;5090237;28;20053;-66
2021/09/24 05:50:55;;;;;;;28.88;8.18;;;14.50;99.90;;;;;;5094989;28;20063;-66
2021/09/24 05:53:21;;;;;;;24.52;5.50;;;14.50;99.90;;;;;;5101086;28;20051;-66
2021/09/24 05:55:46;;;;;;;36.47;8.77;;;14.60;99.90;;;;;;5094810;28;20040;-66
2021/09/24 05:58:12;;;;;;;14.68;3.80;;;14.60;99.90;;;;;;5099565;28;20086;-66
2021/09/24 06:00:38;;;;;;;15.27;3.05;;;14.70;99.90;;;;;;5100621;28;20055;-66
2021/09/24 06:03:04;;;;;;;23.75;4.55;;;14.70;99.90;;;;;;5102306;28;20125;-66
2021/09/24 06:05:29;;;;;;;20.17;4.85;;;14.60;99.90;;;;;;5094733;28;20101;-66
2021/09/24 06:07:55;;;;;;;13.23;3.88;;;14.70;99.90;;;;;;5102988;28;20101;-66
2021/09/24 06:10:21;;;;;;;13.20;3.47;;;14.70;99.90;;;;;;5101045;28;20040;-66
2021/09/24 06:12:48;;;;;;;19.65;3.78;;;14.80;99.90;;;;;;5102343;28;20043;-66
2021/09/24 06:15:19;;;;;;;18.60;4.05;;;14.80;99.90;;;;;;5096209;28;20044;-66
2021/09/24 06:17:45;;;;;;;18.75;4.78;;;14.80;99.90;;;;;;5095518;28;20094;-66
2021/09/24 06:20:12;;;;;;;14.70;4.22;;;14.80;99.90;;;;;;5104273;28;20044;-66
2021/09/24 06:22:38;;;;;;;17.45;4.35;;;14.80;99.90;;;;;;5101823;28;20046;-66
2021/09/24 06:25:04;;;;;;;14.70;4.15;;;14.90;99.90;;;;;;5099909;28;20123;-66
2021/09/24 06:27:31;;;;;;;21.95;5.97;;;14.90;99.90;;;;;;5097096;28;20147;-66
2021/09/24 06:29:58;;;;;;;18.58;4.57;;;14.90;99.90;;;;;;5101391;28;20066;-66
2021/09/24 06:32:24;;;;;;;19.25;4.90;;;14.70;99.90;;;;;;5082694;28;20565;-66
2021/09/24 06:34:50;;;;;;;15.43;4.72;;;14.90;99.90;;;;;;5089479;28;20044;-66
2021/09/24 06:37:16;;;;;;;17.92;4.30;;;15.00;99.90;;;;;;5102675;28;20055;-66
2021/09/24 06:39:42;;;;;;;15.52;3.90;;;15.00;99.90;;;;;;5100567;28;20028;-66
2021/09/24 06:42:08;;;;;;;19.20;5.00;;;15.00;99.90;;;;;;5095113;28;20411;-66
2021/09/24 06:44:34;;;;;;;17.55;5.28;;;15.00;99.90;;;;;;5081078;28;20044;-66
2021/09/24 06:47:00;;;;;;;24.23;5.15;;;15.10;99.90;;;;;;5099518;28;20051;-66
2021/09/24 06:49:26;;;;;;;19.33;4.78;;;15.10;99.90;;;;;;5099989;28;20064;-66
2021/09/24 06:51:57;;;;;;;17.67;5.10;;;15.10;99.90;;;;;;5101820;28;20081;-66
2021/09/24 06:54:23;;;;;;;12.68;4.43;;;15.10;99.90;;;;;;5095023;28;20040;-66
2021/09/24 06:56:49;;;;;;;14.20;5.70;;;15.20;99.90;;;;;;5102970;28;20044;-66
2021/09/24 06:59:15;;;;;;;20.90;4.45;;;15.20;99.90;;;;;;5080410;28;20059;-66
2021/09/24 07:01:42;;;;;;;22.52;5.93;;;15.20;99.90;;;;;;5103098;28;20036;-66
2021/09/24 07:04:08;;;;;;;;;;;15.30;99.90;;;;;;5091606;28;20044;-66
2021/09/24 07:06:34;;;;;;;23.48;6.20;;;15.20;99.90;;;;;;5101860;28;19942;-66
2021/09/24 07:08:59;;;;;;;16.48;4.88;;;15.30;99.90;;;;;;5098275;28;20032;-67
2021/09/24 07:11:27;;;;;;;18.40;5.50;;;15.40;99.90;;;;;;5102001;28;20043;-67
2021/09/24 07:13:53;;;;;;;19.27;5.03;;;15.40;99.90;;;;;;5094493;28;20052;-67
2021/09/24 07:16:19;;;;;;;26.30;5.25;;;15.40;99.90;;;;;;5102118;28;20039;-67
2021/09/24 07:18:45;;;;;;;15.48;5.15;;;15.50;99.90;;;;;;5094755;28;20040;-67
2021/09/24 07:21:11;;;;;;;31.02;5.88;;;15.50;99.90;;;;;;5083590;28;20089;-67
2021/09/24 07:23:37;;;;;;;19.63;6.00;;;15.70;99.90;;;;;;5096889;28;20067;-67
2021/09/24 07:26:03;;;;;;;29.35;5.10;;;15.70;99.90;;;;;;5091389;28;20117;-67
2021/09/24 07:28:29;;;;;;;19.35;5.78;;;15.80;99.90;;;;;;5098019;28;20048;-67
2021/09/24 07:30:55;;;;;;;16.48;5.05;;;15.70;99.90;;;;;;5091124;28;20107;-66
2021/09/24 07:33:20;;;;;;;25.00;6.25;;;15.50;99.90;;;;;;5093843;28;20079;-66
2021/09/24 07:35:47;;;;;;;19.25;5.07;;;15.90;99.90;;;;;;5099803;28;20469;-66
2021/09/24 07:38:12;;;;;;;19.58;5.93;;;15.80;99.90;;;;;;5088255;28;20368;-66
2021/09/24 07:40:38;;;;;;;20.08;5.38;;;15.90;99.90;;;;;;5094097;28;20074;-66
2021/09/24 07:43:04;;;;;;;19.63;4.88;;;15.80;99.90;;;;;;5101189;28;20044;-66
2021/09/24 07:45:30;;;;;;;24.02;6.05;;;15.90;99.90;;;;;;5094389;28;20130;-66
2021/09/24 07:47:55;;;;;;;25.17;5.40;;;15.80;99.90;;;;;;5098174;28;20146;-66
2021/09/24 07:50:21;;;;;;;18.52;5.85;;;16.00;99.90;;;;;;5092618;28;20033;-66
2021/09/24 07:52:47;;;;;;;17.52;4.78;;;16.00;99.90;;;;;;5094568;28;20047;-66
2021/09/24 07:55:13;;;;;;;18.90;5.82;;;16.00;99.90;;;;;;5091921;28;20047;-66
2021/09/24 07:57:38;;;;;;;18.15;5.97;;;15.90;99.90;;;;;;5092735;28;20051;-67
2021/09/24 08:00:06;;;;;;;18.10;4.97;;;16.20;99.90;;;;;;5098398;28;20043;-67
2021/09/24 08:02:32;;;;;;;16.88;4.22;;;16.10;99.90;;;;;;5083325;28;20044;-67
2021/09/24 08:04:58;;;;;;;22.15;5.10;;;16.10;99.90;;;;;;5092121;28;20135;-69
2021/09/24 08:07:24;;;;;;;18.92;4.80;;;16.30;99.90;;;;;;5102368;28;20067;-64
2021/09/24 08:09:50;;;;;;;21.40;4.82;;;16.20;99.90;;;;;;5101198;28;20069;-66
2021/09/24 08:12:16;;;;;;;15.15;5.00;;;16.20;99.90;;;;;;5074078;28;20404;-66
2021/09/24 08:14:42;;;;;;;28.10;5.85;;;16.30;99.90;;;;;;5083135;28;20039;-67
2021/09/24 08:17:09;;;;;;;16.55;5.28;;;16.40;99.90;;;;;;5079502;28;20053;-67
2021/09/24 08:19:37;;;;;;;23.50;5.47;;;16.40;99.90;;;;;;5100588;28;20041;-67
2021/09/24 08:22:04;;;;;;;15.30;5.35;;;16.40;99.90;;;;;;5096419;28;20105;-67
2021/09/24 08:24:30;;;;;;;19.83;4.75;;;16.40;99.90;;;;;;5094121;28;20064;-67
2021/09/24 08:26:56;;;;;;;23.90;5.25;;;16.20;99.90;;;;;;5099575;28;20043;-67
2021/09/24 08:29:22;;;;;;;24.08;5.45;;;16.60;99.90;;;;;;5097169;28;20048;-67
2021/09/24 08:31:48;;;;;;;19.08;5.40;;;16.60;99.90;;;;;;5093187;28;20056;-67
2021/09/24 08:34:14;;;;;;;13.35;5.22;;;16.50;99.90;;;;;;5097058;28;20043;-67
2021/09/24 08:36:40;;;;;;;17.30;4.50;;;16.40;99.90;;;;;;5092390;28;20043;-67
2021/09/24 08:39:07;;;;;;;20.83;5.60;;;16.60;99.90;;;;;;5075791;28;20602;-67
2021/09/24 08:41:32;;;;;;;26.83;6.17;;;16.50;99.90;;;;;;5099753;28;20052;-68
2021/09/24 08:43:58;;;;;;;18.25;5.43;;;16.60;99.90;;;;;;5098994;28;20051;-68
2021/09/24 08:46:26;;;;;;;20.63;6.07;;;16.50;99.90;;;;;;5097289;28;20434;-68
2021/09/24 08:48:52;;;;;;;;;;;16.60;99.90;;;;;;5098455;28;20062;-68
2021/09/24 08:51:18;;;;;;;18.52;5.45;;;16.50;99.90;;;;;;5102107;28;19924;-68
2021/09/24 08:53:44;;;;;;;17.65;5.40;;;16.60;99.90;;;;;;5096873;28;20119;-68
2021/09/24 08:56:12;;;;;;;27.17;6.05;;;16.60;99.90;;;;;;5100551;28;20035;-68
2021/09/24 08:58:38;;;;;;;16.05;5.97;;;16.60;99.90;;;;;;5079392;28;20137;-68
2021/09/24 09:01:04;;;;;;;24.38;6.15;;;16.70;99.90;;;;;;5102960;28;20052;-68
2021/09/24 09:03:37;;;;;;;17.98;6.18;;;16.80;99.90;;;;;;5099916;28;20036;-68
2021/09/24 09:06:07;;;;;;;17.25;5.50;;;16.80;99.90;;;;;;5103604;28;20036;-68
2021/09/24 09:08:33;;;;;;;17.08;5.90;;;16.90;99.90;;;;;;5083577;28;20099;-68
2021/09/24 09:11:00;;;;;;;18.10;5.53;;;16.90;99.90;;;;;;5097301;28;20074;-68
2021/09/24 09:13:31;;;;;;;17.88;6.00;;;16.80;99.90;;;;;;5082306;28;20045;-68
2021/09/24 09:16:23;;;;;;;18.45;6.05;;;16.90;99.90;;;;;;5104663;28;20044;-68
2021/09/24 09:19:02;;;;;;;25.08;6.47;;;16.90;99.90;;;;;;5087637;28;20062;-68
2021/09/24 09:21:28;;;;;;;18.77;5.60;;;17.00;99.90;;;;;;5101283;28;20040;-68
2021/09/24 09:23:55;;;;;;;18.63;5.80;;;16.90;99.90;;;;;;5096496;28;20047;-67
2021/09/24 09:26:23;;;;;;;26.77;6.88;;;17.00;99.90;;;;;;5101657;28;20084;-68
2021/09/24 09:28:56;;;;;;;23.05;7.22;;;17.00;99.90;;;;;;5099966;28;20495;-69
2021/09/24 09:31:26;;;;;;;20.42;7.07;;;17.20;99.90;;;;;;5101941;28;20334;-66
2021/09/24 09:33:55;;;;;;;22.48;6.78;;;17.20;99.90;;;;;;5093093;28;20562;-67
2021/09/24 09:36:23;;;;;;;23.90;6.40;;;17.20;99.90;;;;;;5094302;28;20063;-67
2021/09/24 09:38:49;;;;;;;16.45;5.80;;;17.30;99.90;;;;;;5101862;28;20056;-66
2021/09/24 09:41:16;;;;;;;16.75;6.25;;;17.20;99.90;;;;;;5101177;28;20109;-66
2021/09/24 09:43:56;;;;;;;20.73;6.22;;;17.30;99.90;;;;;;5098077;28;20060;-66
2021/09/24 09:46:30;;;;;;;21.65;5.95;;;17.30;99.90;;;;;;5082163;28;20055;-67
2021/09/24 09:49:07;;;;;;;20.73;5.40;;;17.40;99.90;;;;;;5072634;28;20377;-65
2021/09/24 09:51:34;;;;;;;21.50;6.53;;;17.50;99.90;;;;;;5094509;28;20519;-64
2021/09/24 09:54:00;;;;;;;20.88;6.53;;;17.50;99.90;;;;;;5101339;28;20055;-67
2021/09/24 09:56:49;;;;;;;18.67;5.90;;;17.50;99.90;;;;;;5099200;28;20040;-63
2021/09/24 09:59:30;;;;;;;15.50;5.30;;;17.60;99.90;;;;;;5099276;28;20054;-62
2021/09/24 10:02:13;;;;;;;15.70;5.57;;;17.50;99.90;;;;;;5100602;28;20044;-63
2021/09/24 10:04:44;;;;;;;13.80;4.63;;;17.60;99.90;;;;;;5098228;28;20051;-64
2021/09/24 10:07:13;;;;;;;11.60;3.90;;;17.50;99.90;;;;;;5104080;28;20082;-63
2021/09/24 10:09:40;;;;;;;19.88;5.18;;;17.40;99.90;;;;;;5101548;28;20047;-62
2021/09/24 10:12:20;;;;;;;15.95;3.92;;;17.40;99.90;;;;;;5102848;28;20044;-68
2021/09/24 10:14:48;;;;;;;14.88;4.22;;;17.60;99.90;;;;;;5098280;28;20038;-70
2021/09/24 10:17:15;;;;;;;15.60;4.22;;;17.70;99.90;;;;;;5083551;28;20101;-66
2021/09/24 10:19:43;;;;;;;15.07;4.05;;;17.70;99.90;;;;;;5100792;28;20056;-68
2021/09/24 10:22:09;;;;;;;11.60;3.38;;;17.80;99.90;;;;;;5100947;28;20036;-67
2021/09/24 10:24:35;;;;;;;11.23;3.50;;;17.70;99.90;;;;;;5100988;28;20047;-65
2021/09/24 10:27:06;;;;;;;12.55;4.38;;;17.80;99.90;;;;;;5098438;28;20040;-65
2021/09/24 10:29:36;;;;;;;14.95;4.20;;;17.90;99.90;;;;;;5098002;28;20048;-65
2021/09/24 10:32:20;;;;;;;9.95;3.90;;;18.00;99.90;;;;;;5092687;28;20068;-66
2021/09/24 10:34:56;;;;;;;9.75;3.20;;;18.10;99.90;;;;;;5101358;28;20411;-66
2021/09/24 10:37:24;;;;;;;9.57;3.20;;;18.10;99.90;;;;;;5102194;28;20059;-66
2021/09/24 10:39:57;;;;;;;13.52;3.42;;;18.00;99.90;;;;;;5100391;28;20097;-76
2021/09/24 10:42:26;;;;;;;11.93;3.15;;;18.00;99.90;;;;;;5094978;28;20095;-73
2021/09/24 10:45:00;;;;;;;7.63;2.92;;;18.20;99.90;;;;;;5094533;28;20048;-61
2021/09/24 10:47:45;;;;;;;13.75;3.95;;;18.30;99.90;;;;;;5099630;28;20070;-63
2021/09/24 10:50:32;;;;;;;12.40;2.83;;;18.40;99.90;;;;;;5098908;28;20036;-68
2021/09/24 10:53:10;;;;;;;12.93;3.53;;;18.40;99.90;;;;;;5093158;28;20048;-67
2021/09/24 10:55:39;;;;;;;15.25;3.42;;;18.40;99.90;;;;;;5099251;28;20171;-65
2021/09/24 10:58:05;;;;;;;10.30;2.67;;;18.60;99.90;;;;;;5100426;28;20044;-62
2021/09/24 11:00:33;;;;;;;15.35;3.45;;;18.90;99.90;;;;;;5101891;28;20043;-65
2021/09/24 11:03:14;;;;;;;6.65;3.70;;;18.90;99.90;;;;;;5099094;28;20044;-75
2021/09/24 11:06:05;;;;;;;13.07;3.42;;;18.80;99.90;;;;;;5079257;28;20055;-72
2021/09/24 11:08:34;;;;;;;6.85;2.88;;;18.90;99.90;;;;;;5092899;28;20050;-71
2021/09/24 11:11:20;;;;;;;15.07;3.00;;;19.00;99.90;;;;;;5100526;28;20043;-70
2021/09/24 11:13:49;;;;;;;6.80;3.17;;;19.00;99.90;;;;;;5097737;28;20040;-68
2021/09/24 11:16:18;;;;;;;7.20;2.85;;;19.20;99.90;;;;;;5084069;28;20044;-66
2021/09/24 11:19:00;;;;;;;8.57;3.08;;;19.10;99.90;;;;;;5096975;28;20327;-67
2021/09/24 11:21:38;;;;;;;8.02;3.10;;;19.20;99.90;;;;;;5096313;28;20048;-66
2021/09/24 11:24:24;;;;;;;9.73;3.08;;;19.20;99.90;;;;;;5096620;28;20460;-67
2021/09/24 11:26:55;;;;;;;8.40;3.17;;;19.10;99.90;;;;;;5097522;28;20086;-66
2021/09/24 11:29:23;;;;;;;11.02;3.67;;;19.10;99.90;;;;;;5096243;28;20450;-67
2021/09/24 11:32:05;;;;;;;6.28;2.67;;;19.20;99.90;;;;;;5077804;28;20079;-68
2021/09/24 11:34:46;;;;;;;12.35;3.78;;;19.40;99.90;;;;;;5092345;28;20044;-62
2021/09/24 11:37:31;;;;;;;7.85;3.60;;;19.80;99.90;;;;;;5098169;28;20056;-75
2021/09/24 11:40:18;;;;;;;7.25;3.15;;;20.10;99.90;;;;;;5091508;28;20047;-74
2021/09/24 11:42:58;;;;;;;11.30;3.35;;;20.30;99.90;;;;;;5100444;28;20044;-74
2021/09/24 11:45:29;;;;;;;13.80;3.22;;;20.10;99.90;;;;;;5098573;28;20040;-71
2021/09/24 11:48:09;;;;;;;8.18;3.30;;;19.70;99.90;;;;;;5092173;28;20096;-70
2021/09/24 11:50:36;;;;;;;15.30;4.53;;;19.60;99.90;;;;;;5099406;28;20073;-70
2021/09/24 11:53:03;;;;;;;;;;;19.60;99.90;;;;;;5099161;28;20036;-69
2021/09/24 11:55:43;;;;;;;11.32;3.67;;;19.90;99.90;;;;;;5095893;28;19924;-69
2021/09/24 11:58:14;;;;;;;7.40;2.78;;;20.40;99.90;;;;;;5094058;28;20081;-69
2021/09/24 12:00:43;;;;;;;8.43;3.80;;;20.70;99.90;;;;;;5100543;28;20036;-73
2021/09/24 12:03:27;;;;;;;11.35;3.05;;;21.30;99.90;;;;;;5075353;28;20044;-69
2021/09/24 12:06:01;;;;;;;8.43;3.42;;;21.20;99.90;;;;;;5101700;28;20032;-70
2021/09/24 12:08:32;;;;;;;11.30;3.08;;;21.10;99.90;;;;;;5091836;28;20082;-70
2021/09/24 12:11:06;;;;;;;9.50;3.65;;;20.50;99.90;;;;;;5098449;28;20562;-67
2021/09/24 12:13:47;;;;;;;7.13;2.92;;;20.30;99.90;;;;;;5094045;28;20040;-67
2021/09/24 12:16:27;;;;;;;9.70;2.88;;;20.10;99.90;;;;;;5095648;28;20033;-66
2021/09/24 12:19:00;;;;;;;10.10;3.50;;;20.10;99.90;;;;;;5091469;28;20127;-65
2021/09/24 12:21:59;;;;;;;7.57;2.88;;;20.00;99.90;;;;;;5101497;28;20040;-62
2021/09/24 12:24:34;;;;;;;12.02;2.70;;;20.40;99.90;;;;;;5094585;28;20075;-66
2021/09/24 12:27:08;;;;;;;11.38;2.60;;;20.80;99.90;;;;;;5094574;28;20071;-67
2021/09/24 12:29:35;;;;;;;5.35;2.40;;;21.00;99.90;;;;;;5082351;28;20049;-69
2021/09/24 12:32:07;;;;;;;10.80;2.60;;;20.90;99.90;;;;;;5100495;28;20143;-68
2021/09/24 12:34:42;;;;;;;6.60;2.42;;;20.80;99.90;;;;;;5101596;28;20036;-68
2021/09/24 12:37:09;;;;;;;4.85;2.55;;;20.80;99.90;;;;;;5076870;28;20112;-67
2021/09/24 12:39:38;;;;;;;5.22;2.05;;;21.80;99.90;;;;;;5077287;28;20040;-72
2021/09/24 12:42:16;;;;;;;10.95;2.50;;;22.00;99.90;;;;;;5103889;28;20048;-67
2021/09/24 12:44:51;;;;;;;9.88;3.10;;;22.40;99.90;;;;;;5097079;28;20449;-68